Pagrindinis puslapis
METAR-TAF:

METAR-TAF

Oro uostai :

Choremabadas, Iranas

platuma: 33-26-11N, ilguma: 048-17-09E, Aukštis: 1155 m

Dabartinis oras

Ataskaita buvo paskelbta 41 minutes, ne 08:00 UTC
Vėjas 4 kt iš Vakarų
Temperatūra 30°C
Drėgmė 12%
Slėgis 1014 hPa
Matomumas 10 km arba daugiau
nėra debesų žemiau 1500 m ir nėra kamuolinių lietaus debesų

METAR: OICK 020800Z 26004KT CAVOK 30/M02 Q1014

Laikas: 12:11 (08:41 UTC)


TAF: trūkstamas

Orai ataskaitas ir orų prognozės (METAR, TAF).

turimą stotys yra geltonos ir raudonos taškus žemėlapyje.

Perkelti pele per norėdami pamatyti stoties vardą.

Tada spustelėkite, norėdami matyti oro stebėjimo ir prognozės.

Norėdami pakeisti žemėlapį: spustelėkite ant žalios mygtukų su juodo kryžiaus žemyn,; žalią mygtuką su brūkšneliu, jei norite nutolinti; arba žalių rodyklių gretimoms žemėlapius.


METAR-TAF: